< < Back
Terminal Aerodrome Forecast


Current Version              Previous Versions:   1  2  3  4  5  6  7  8  9  

Terminal Aerodrome Forecast

708
FTUS44 KOHX 021100
TAFBNA
TAF
KBNA 021125Z 0212/0312 18006KT P6SM SKC
     FM021500 18010G20KT P6SM SCT045
     FM022300 17008G15KT P6SM VCSH BKN050
     FM030400 18011KT P6SM VCTS OVC035CB
     FM030800 18010KT 4SM SHRA BR VCTS OVC025CB=

Latest METAR

712
SAUS70 KWBC 021400 RRQ
MTRBNA
METAR KBNA 021353Z 17005KT 10SM BKN095 BKN200 23/17 A3006 RMK AO2 SLP172
T02280167


USA.gov is the U.S. government's official web portal to all federal, state and local government web resources and services.